AirNav   SIMCOM
 
 915 users online  

47WI Oakbrook Airport
Fort Atkinson, Wisconsin, USA

GOING TO FORT ATKINSON?


FAA INFORMATION EFFECTIVE 20 JULY 2017

Location

FAA Identifier: 47WI
Lat/Long: 42-53-24.0250N / 088-48-29.3820W
42-53.400417N / 088-48.489700W
42.8900069 / -88.8081617
(estimated)
Elevation: 840 ft. / 256 m (estimated)
Variation: 00W (1985)
From city: 3 miles SE of FORT ATKINSON, WI
Time zone: UTC -5 (UTC -6 during Standard Time)
Zip code: 53538

Airport Operations

Airport use: Private use. Permission required prior to landing
Activation date: 08/1979
Control tower: no
ARTCC: CHICAGO CENTER
FSS: GREEN BAY FLIGHT SERVICE STATION
Attendance: UNATNDD
Wind indicator: yes
Segmented circle: no

Airport Communications

WX AWOS-3 at RYV (17 nm N): 119.975 (920-261-0734)
WX AWOS-3 at JVL (19 nm SW): PHONE 608-758-1723
WX AWOS-3PT at 57C (20 nm E): 118.125 (262-642-1845)

Nearby radio navigation aids

VOR radial/distance  VOR name  Freq  Var
JVLr030/23.8JANESVILLE VOR/DME114.3003E
BUUr299/25.3BURBUN VOR/DME114.5001W
BAEr237/26.7BADGER VORTAC116.4002E
MSNr120/27.9MADISON VORTAC108.6003E
LJTr251/36.3TIMMERMAN VOR/DME112.5002W

 
NDB name  Hdg/Dist  Freq  Var  ID
LAKE LAWN320/14.940400WLVV .-.. ...- ...-
ROCK RIVER193/17.437101WRYV .-. -.-- ...-
JANESVILLE029/19.437503EJVL .--- ...- .-..
JUNEAU189/32.734401WUNU ..- -. ..-

Airport Services

Runway Information

Runway 9/27

Dimensions: 2100 x 30 ft. / 640 x 9 m
Surface: asphalt
Runway edge markings: 09/27 CENTER LINE REFLECTORS.
RUNWAY 9  RUNWAY 27
Traffic pattern: leftleft

Airport Ownership and Management from official FAA records

Ownership: Privately-owned
Owner: J. W. O'DONNELL & ASSOC INC.
N1402 HWY 12
FORT ATKINSON, WI 53538
Phone 414-563-9611
Manager: JOHN W. O'DONNELL
RR 2, BOX 317
FORT ATKINSON, WI 53538
Phone 414-563-9611

Airport Operational Statistics

Aircraft based on the field: 2
Single engine airplanes: 1
Ultralights: 1
    

Instrument Procedures

There are no published instrument procedures at 47WI.

Some nearby airports with instrument procedures:

61C - Fort Atkinson Municipal Airport (4 nm N)
KRYV - Watertown Municipal Airport (17 nm N)
KJVL - Southern Wisconsin Regional Airport (19 nm SW)
57C - East Troy Municipal Airport (20 nm E)
87Y - Blackhawk Airfield (21 nm NW)
 
Loc | Ops | Rwys | IFR | FBO | Links
Com | Nav | Svcs | Stats | Notes


 
Area around 47WI (Oakbrook Airport)
 
Road maps at: MapQuest Bing Google
 
Aerial photo
WARNING: Photo may not be current or correct
Aerial photo of 47WI (Oakbrook Airport)
Do you have a better or more recent aerial photo of Oakbrook Airport that you would like to share? If so, please send us your photo.

 
Sectional chart

 
Airport distance calculator
Flying to Oakbrook Airport? Find the distance to fly.

From to 47WI

Sunrise and sunset
Times for 26-Jul-2017
 Local
(UTC-5)
 Zulu
(UTC)
Morning civil twilight05:0810:08
Sunrise05:4110:41
Sunset20:2201:22
Evening civil twilight20:5501:55

Current date and time
Zulu (UTC)  26-Jul-2017 12:20:55
Local (UTC-5)  26-Jul-2017 07:20:55
 
METAR
KRYV 
17nm N 
261155Z AUTO 17005KT 10SM CLR 19/18 A3005 RMK AO2 60001 70001 T01850175 10188 20178
KJVL 
19nm SW 
261145Z 19004KT 10SM BKN250 19/18 A3007 RMK FIRST
KBUU 
26nm SE 
261155Z AUTO 22003KT 10SM CLR 17/17 A3008 RMK AO2 T01720171 10180 20158
KMSN 
28nm NW 
261153Z 20007KT 10SM FEW090 SCT140 OVC220 20/17 A3005 RMK AO2 SLP170 T02000172 10217 20200 56004
KUES 
31nm E 
261145Z 21008KT 10SM BKN120 18/14 A3008
KUNU 
32nm N 
261155Z AUTO 19006KT 10SM CLR 19/16 A3007 RMK AO2 LTG DSNT N T01860160 10188 20181
TAF
KMSN 
28nm NW 
261120Z 2612/2712 19006KT P6SM SCT120 BKN200 FM261500 22007KT P6SM SCT060 BKN100 FM262000 23007KT P6SM -SHRA VCTS SCT030CB OVC090 FM262300 27004KT P6SM SHRA VCTS SCT035CB OVC070 FM270400 00000KT P6SM VCTS SCT035CB OVC050 FM270600 00000KT 6SM BR BKN045 FM271000 01004KT 5SM BR BKN060
KUES 
31nm E 
261120Z 2612/2712 20006KT P6SM SCT120 OVC250 FM261600 23008KT P6SM SCT050 BKN200 FM262100 23008KT P6SM VCTS SCT030CB OVC100 FM270000 23005KT P6SM SHRA VCTS SCT025 OVC060CB FM270400 00000KT P6SM VCTS SCT035 OVC050CB FM270600 VRB03KT P6SM BKN035
NOTAMs
Click for the latest NOTAMs
NOTAMs are issued by the DoD/FAA and will open in a separate window not controlled by AirNav.

 

 
 

Would you like to see your business listed on this page?

 If your business provides an interesting product or service to pilots, flight crews, aircraft, or users of the Oakbrook Airport, you should consider listing it here.  To start the listing process, click on the button below
 
Add a business
 

Other Pages about Oakbrook Airport

Update a link
 
Copyright © AirNav, LLC. All rights reserved. Privacy Policy  Contact